Guilin Liangjiang International Airport
ZGKL : now visible

Airfield :











YOU CAN JOIN US ON...

 
LOGIN :

Register | Disclaimer

   EN    FR    IT 

 









Legend :    VFR   Marginal VFR   IFR   Intensive IFR   Very Intensive IFR
Visi :
Ceiling :
>= 8 km
>= 3000ft
5 to 8 km
1000 to 3000 ft
1500m to 5 km
500 to 1000 ft
800 to 1500m
200 to 500 ft
< 800m
< 200 ft
Symbols :   Thunderstorms  Fog  Heavy snow  Heavy precipitations  Wind > 20 kt






- Airport Elevation : 570 ft
- IATA code : KWL


ZGKL - Guilin Liangjiang International

CURRENT METAR :
  • 131200Z 06004MPS CAVOK 17/11 Q1027 NOSIG

EXPIRED METARs :
  • 131100Z 05006MPS 9999 FEW040 18/12 Q1026 NOSIG
  • 131000Z 05007MPS 9999 BKN040 OVC066 18/12 Q1026 NOSIG

TAF TAF ZGKL
Valid from the 13 at 12:00 until the 14 at 12:00 UTC


130914Z 1312/1412 05004MPS 9999 SCT030 BKN050 TX24/1407Z TN15/1323Z



MET'MAP, your aeronautical weather chart ! - Copyright ORBIFLY December 2007 - Disclaimer

ORBIFLY MET'MAP TEAM :

Programming & Development : Alexandra Zaïnal
Concept & Development : Baudouin d'Aumeries
Co-Development & Prog : Marc-Olivier Méhu
Technical & hardware support : Manuel Goepfert

Contact : metmap@orbifly.com




SOURCES & CREDITS :

   NOAA       Earth
Advisory